KAID/AID METAR and TAF weather

Enter ICAO airport designator
Station Type Date Time Source
KAID METAR 2022/01/19 18:55 UTC NOAA

KAID 191855Z 29012KT 10SM SCT100 03/M06 A3000


Station Type Date Time Source
KAID Decoded METAR 2022/01/19 18:55 UTC NOAA

Anderson Municipal, IN, United States (KAID) 40-07N 085-37W
Jan 19, 2022 - 01:55 PM EST / 2022.01.19 1855 UTC
Wind: from the WNW (290 degrees) at 14 MPH (12 KT):0
Visibility: 10 mile(s):0
Sky conditions: partly cloudy
Temperature: 37 F (3 C)
Dew Point: 21 F (-6 C)
Relative Humidity: 51%
Pressure (altimeter): 30 in. Hg (1015 hPa)
ob: KAID 191855Z 29012KT 10SM SCT100 03/M06 A3000
cycle: 19

Station Type Date Time Source
KAID TAF UTC NOAA

Error!

Example: see airport list